This is the latest recevied weather packets stored in our database for station/object OK4PZ-5. If no packets are shown the sender has not sent any weather packets the latest 10 day(s).
| Time | Temp. | Humidity | Pressure | Rain* | Wind** | Luminosity | Snow |
|---|---|---|---|---|---|---|---|
| 1788380102 | 15.56° C | 86% | 1023 hPa | 0 mm | - | - | - |
| 1788379219 | 16.11° C | 83% | 1023 hPa | 0 mm | - | - | - |
| 1788378301 | 16.11° C | 82% | 1022 hPa | 0 mm | - | - | - |
| 1788377402 | 16.67° C | 80% | 1022 hPa | 0 mm | - | - | - |
| 1788376502 | 17.22° C | 80% | 1023 hPa | 0 mm | - | - | - |
| 1788375602 | 17.78° C | 77% | 1022 hPa | 0 mm | - | - | - |
| 1788374703 | 17.78° C | 76% | 1022 hPa | 0 mm | - | - | - |
| 1788373802 | 17.78° C | 76% | 1022 hPa | 0 mm | - | - | - |
| 1788372903 | 18.33° C | 74% | 1022 hPa | 0 mm | - | - | - |
| 1788372003 | 18.33° C | 73% | 1022 hPa | 0 mm | - | - | - |
| 1788371102 | 19.44° C | 67% | 1022 hPa | 0 mm | - | - | - |
| 1788370202 | 20° C | 63% | 1022 hPa | 0 mm | - | - | - |
| 1788369302 | 20.56° C | 61% | 1022 hPa | 0 mm | - | - | - |
| 1788368403 | 20.56° C | 58% | 1022 hPa | 0 mm | - | - | - |
| 1788367503 | 21.11° C | 56% | 1022 hPa | 0 mm | - | - | - |
| 1788366602 | 21.67° C | 53% | 1022 hPa | 0 mm | - | - | - |
| 1788365702 | 22.22° C | 51% | 1022 hPa | 0 mm | - | - | - |
| 1788364802 | 22.78° C | 51% | 1022 hPa | 0 mm | - | - | - |
| 1788363902 | 23.33° C | 49% | 1022 hPa | 0 mm | - | - | - |
| 1788363002 | 22.78° C | 51% | 1022 hPa | 0 mm | - | - | - |
| 1788362102 | 23.33° C | 48% | 1022 hPa | 0 mm | - | - | - |
| 1788361202 | 25.56° C | 44% | 1022 hPa | 0 mm | - | - | - |
| 1788360302 | 24.44° C | 45% | 1022 hPa | 0 mm | - | - | - |
| 1788359402 | 23.89° C | 46% | 1022 hPa | 0 mm | - | - | - |
| 1788358502 | 23.33° C | 49% | 1022 hPa | 0 mm | - | - | - |
* Rain latest hour (hover to see other rain measurements)
** Current wind speed in m/s (hover to see current wind gust speed)